Central Point, OR

9:26 PM PST on January 28, 2015 (GMT -0800)
APRSWXNET Canby OR US | Change Station
CLOSE
Current Station
Personal Weather Station
Location: Canby, OR
Elevation: 158 ft
Nearby Weather Stations

Elev 158 ft 45.27 °N, 122.69 °W | Updated 31 minutes ago

Overcast
Overcast
48 °F
Feels Like 48 °F
N
0
Wind Variable Wind from South
Gusts 0.0 mph

Today
High -- | Low -- °F
--% Chance of Precip.
Yesterday
High -- | Low -- °F
Precip. -- in
7:35 AM 5:12 PM
Waxing Gibbous, 71% visible
Pressure 30.32 in
Visibility 6.0 miles
Clouds Clear
Windchill 48 °F
Dew Point 45 °F
Humidity 89%
Rainfall 0.07 in
Snow Depth Not available.
UV 0 out of 12
Pollen 2.00 out of 12
Air Quality Not available.
Flu Activity Not available.
METAR KUAO 290453Z AUTO 33003KT 6SM BR CLR 09/08 A3032 RMK AO2 SLP266 T00890083

More Conditions Fewer Conditions

Pressure 30.32 in
Visibility 6.0 miles
Clouds Clear
Windchill 48 °F
Dew Point 45 °F
Humidity 89%
Rainfall 0.07 in
Snow Depth Not available.
UV 0 out of 12
Pollen 2.00 out of 12
Air Quality Not available.
Flu Activity Not available.
METAR KUAO 290453Z AUTO 33003KT 6SM BR CLR 09/08 A3032 RMK AO2 SLP266 T00890083

More Conditions Fewer Conditions

10-Day Weather Forecast

Almanac

Astronomy

Jan. 28, 2015 Rise Set
Actual Time
Civil Twilight
Nautical Twilight
Astronomical Twilight
Moon
Length of Visible Light
Length of Day
Tomorrow will be .
, % of the Moon is Illuminated

Today's Extremes

State Highs State Lows

Community

WunderPhotos

Upload Photos

1,791,359 photos uploaded!

WunderBlogs® & News

Nearby

Air Quality

  Air Quality AQ Index Pollutant
Not available.

Snow Depth

Station Depth Elevation

Earthquake Activity

City Distance Mag. Time & Date
Minimum magnitude displayed is 2.5.

Coastal Water Temperatures

Place Temperature

Nearby Weather Stations